Time;durP1;ratioP1;P1;durP2;ratioP2;P2;SDS_P1;SDS_P2;PMS_P1;PMS_P2;Temp;Humidity;BMP_temperature;BMP_pressure;BME280_temperature;BME280_humidity;BME280_pressure;Samples;Min_cycle;Max_cycle;Signal;HPM_P1;HPM_P2
2021/08/06 13:14:16;;;;;;;8.18;6.10;;;21.00;99.90;;;;;;2331192;23;20053;-93
2021/08/06 13:20:43;;;;;;;;;;;;;;;;;;;;;
2021/08/06 13:27:28;;;;;;;;;;;;;;;;;;;;;
2021/08/06 13:33:59;;;;;;;;;;;;;;;;;;;;;
2021/08/06 13:54:26;;;;;;;7.50;5.18;;;20.40;99.90;;;;;;4841655;29;20521;-93
2021/08/06 13:57:44;;;;;;;6.80;4.85;;;20.40;99.90;;;;;;4802206;29;20042;-93
2021/08/06 14:00:53;;;;;;;5.10;4.50;;;20.40;99.90;;;;;;4825115;29;20409;-92
2021/08/06 14:03:56;;;;;;;5.57;4.45;;;20.30;99.90;;;;;;4874846;29;20043;-92
2021/08/06 14:13:49;;;;;;;5.35;4.05;;;20.30;99.90;;;;;;4884587;29;20036;-92
2021/08/06 14:58:49;;;;;;;3.88;2.53;;;20.40;99.90;;;;;;4790413;30;20100;-92
2021/08/06 16:11:01;;;;;;;51.67;25.50;;;21.20;99.90;;;;;;4982670;28;20046;-94
2021/08/06 16:18:01;;;;;;;;;;;;;;;;;;;;;
2021/08/06 16:22:20;;;;;;;;;;;;;;;;;;;;;
2021/08/06 16:25:24;;;;;;;17.95;9.48;;;20.70;99.90;;;;;;4826906;29;20050;-95
2021/08/06 16:28:39;;;;;;;;;;;;;;;;;;;;;
2021/08/06 16:31:25;;;;;;;10.60;6.40;;;20.50;99.90;;;;;;4796518;30;20122;-94
2021/08/06 16:34:30;;;;;;;8.57;6.13;;;20.50;99.90;;;;;;4783832;29;20129;-95
2021/08/06 16:37:17;;;;;;;;;;;20.50;99.90;;;;;;4806840;29;20034;-95
2021/08/06 16:43:10;;;;;;;4.60;3.75;;;20.40;99.90;;;;;;4849063;29;20583;-95
2021/08/06 16:45:47;;;;;;;4.43;3.83;;;20.30;99.90;;;;;;4862111;29;20042;-95
2021/08/06 16:48:51;;;;;;;4.90;4.00;;;20.20;99.90;;;;;;4901958;29;20068;-95
2021/08/06 16:51:26;;;;;;;4.72;4.28;;;20.10;99.90;;;;;;4907489;29;20097;-94
2021/08/06 16:54:00;;;;;;;4.55;3.97;;;20.10;99.90;;;;;;4906990;29;20495;-94
2021/08/06 16:56:44;;;;;;;4.88;4.03;;;20.10;99.90;;;;;;4903037;29;20037;-95
2021/08/06 16:59:16;;;;;;;5.65;3.88;;;20.00;99.90;;;;;;4914501;28;20086;-94
2021/08/06 17:02:06;;;;;;;4.20;3.47;;;20.00;99.90;;;;;;4955894;28;20221;-94
2021/08/06 17:04:57;;;;;;;4.10;3.70;;;19.90;99.90;;;;;;4945025;28;20038;-95
2021/08/06 17:07:49;;;;;;;5.28;4.00;;;19.90;99.90;;;;;;4987631;28;20163;-95
2021/08/06 17:11:02;;;;;;;5.53;4.10;;;19.90;99.90;;;;;;4954919;28;20118;-92
2021/08/06 17:13:45;;;;;;;4.95;3.97;;;19.90;99.90;;;;;;4923008;29;20474;-92
2021/08/06 17:16:55;;;;;;;5.65;4.47;;;19.90;99.90;;;;;;4936569;29;20397;-93
2021/08/06 17:19:45;;;;;;;4.68;4.00;;;19.90;99.90;;;;;;4880743;29;20064;-93
2021/08/06 17:25:28;;;;;;;5.45;4.13;;;19.80;99.90;;;;;;4908297;29;20043;-92
2021/08/06 17:28:09;;;;;;;5.00;4.10;;;19.80;99.90;;;;;;4899153;29;20045;-93
2021/08/06 17:30:44;;;;;;;5.22;4.60;;;19.80;99.90;;;;;;4901087;29;20070;-93
2021/08/06 17:34:11;;;;;;;;;;;;;;;;;;;;;
2021/08/06 18:14:42;;;;;;;7.57;5.65;;;19.80;99.90;;;;;;4983050;28;20532;-93
2021/08/06 18:17:18;;;;;;;6.90;5.32;;;19.80;99.90;;;;;;4998968;28;20034;-93
2021/08/06 18:20:03;;;;;;;7.93;5.75;;;19.80;99.90;;;;;;4994186;28;20489;-96
2021/08/06 18:23:18;;;;;;;;;;;;;;;;;;;;;
2021/08/06 18:25:58;;;;;;;;;;;;;;;;;;;;;
2021/08/06 18:28:55;;;;;;;6.78;5.55;;;19.90;99.90;;;;;;4993649;28;20034;-94
2021/08/06 18:31:51;;;;;;;5.90;4.95;;;20.00;99.90;;;;;;4951040;28;20523;-94
2021/08/06 18:38:35;;;;;;;8.18;4.40;;;20.10;99.90;;;;;;4914207;29;20446;-93
2021/08/06 18:41:33;;;;;;;5.25;4.47;;;20.10;99.90;;;;;;4883963;29;20487;-94
2021/08/06 18:44:52;;;;;;;;;;;;;;;;;;;;;
2021/08/06 18:50:51;;;;;;;;;;;;;;;;;;;;;
2021/08/06 18:54:09;;;;;;;;;;;;;;;;;;;;;
2021/08/06 18:57:00;;;;;;;8.55;6.53;;;20.10;99.90;;;;;;4919637;29;20046;-94
2021/08/06 19:00:09;;;;;;;11.50;8.75;;;20.10;99.90;;;;;;4919474;29;20040;-94
2021/08/06 19:03:43;;;;;;;;;;;;;;;;;;;;;
2021/08/06 19:06:15;;;;;;;;;;;;;;;;;;;;;
2021/08/06 19:12:30;;;;;;;;;;;;;;;;;;;;;
2021/08/06 19:18:36;;;;;;;6.70;5.20;;;19.90;99.90;;;;;;4997836;28;20496;-94
2021/08/06 19:24:33;;;;;;;;;;;;;;;;;;;;;
2021/08/06 19:27:44;;;;;;;5.78;4.85;;;19.90;99.90;;;;;;4997900;28;20043;-94
2021/08/06 19:30:46;;;;;;;;;;;;;;;;;;;;;
2021/08/06 19:37:06;;;;;;;;;;;;;;;;;;;;;
2021/08/06 19:39:53;;;;;;;6.30;5.40;;;20.00;99.90;;;;;;4997834;28;20034;-94
2021/08/06 19:49:20;;;;;;;7.40;5.68;;;19.90;99.90;;;;;;4947935;28;20499;-94
2021/08/06 19:53:01;;;;;;;7.25;5.85;;;20.00;99.90;;;;;;4980709;28;20038;-95
2021/08/06 19:55:48;;;;;;;;;;;;;;;;;;;;;
2021/08/06 20:02:04;;;;;;;6.40;5.35;;;20.10;99.90;;;;;;4988256;28;20058;-94
2021/08/06 20:08:26;;;;;;;;;;;;;;;;;;;;;
2021/08/06 20:11:26;;;;;;;;;;;;;;;;;;;;;
2021/08/06 20:14:35;;;;;;;;;;;;;;;;;;;;;
2021/08/06 20:17:06;;;;;;;6.47;5.30;;;20.00;99.90;;;;;;5000108;28;20437;-94
2021/08/06 20:19:47;;;;;;;;;;;;;;;;;;;;;
2021/08/06 20:22:48;;;;;;;6.05;4.72;;;19.90;99.90;;;;;;4996312;28;20496;-94
2021/08/06 20:25:29;;;;;;;6.53;4.82;;;19.90;99.90;;;;;;4979254;28;20038;-94
2021/08/06 20:28:30;;;;;;;5.07;4.35;;;19.90;99.90;;;;;;4996158;28;20038;-94
2021/08/06 20:31:07;;;;;;;6.10;5.50;;;19.80;99.90;;;;;;4995519;28;20034;-94
2021/08/06 20:40:27;;;;;;;;;;;;;;;;;;;;;
2021/08/06 20:46:15;;;;;;;;;;;;;;;;;;;;;
2021/08/06 20:48:57;;;;;;;5.50;4.90;;;19.90;99.90;;;;;;4997146;28;20044;-94
2021/08/06 20:51:55;;;;;;;;;;;;;;;;;;;;;
2021/08/06 20:54:38;;;;;;;9.98;6.03;;;20.00;99.90;;;;;;4995860;28;20072;-94
2021/08/06 20:57:31;;;;;;;7.55;5.38;;;20.10;99.90;;;;;;4978990;28;20034;-94
2021/08/06 21:00:33;;;;;;;;;;;;;;;;;;;;;
2021/08/06 21:03:05;;;;;;;7.70;5.88;;;20.10;99.90;;;;;;4995926;28;20048;-93
2021/08/06 21:05:45;;;;;;;6.75;5.85;;;20.10;99.90;;;;;;4978345;28;20046;-94
2021/08/06 21:08:45;;;;;;;;;;;;;;;;;;;;;
2021/08/06 21:11:40;;;;;;;7.78;6.20;;;20.20;99.90;;;;;;4996017;28;20052;-94
2021/08/06 21:14:28;;;;;;;10.52;7.05;;;20.20;99.90;;;;;;4978230;28;20034;-93
2021/08/06 21:17:00;;;;;;;7.03;5.43;;;20.30;99.90;;;;;;4978423;28;20037;-94
2021/08/06 21:20:06;;;;;;;8.02;5.85;;;20.30;99.90;;;;;;4978407;28;20069;-94
2021/08/06 21:22:44;;;;;;;;;;;;;;;;;;;;;
2021/08/06 21:26:01;;;;;;;;;;;;;;;;;;;;;
2021/08/06 21:29:00;;;;;;;6.03;5.43;;;20.20;99.90;;;;;;4995683;28;20050;-94
2021/08/06 21:31:52;;;;;;;;;;;;;;;;;;;;;
2021/08/06 21:41:17;;;;;;;5.18;4.63;;;20.30;99.90;;;;;;4980248;28;20034;-94
2021/08/06 21:44:10;;;;;;;;;;;;;;;;;;;;;
2021/08/06 21:46:41;;;;;;;9.43;5.28;;;20.30;99.90;;;;;;4996644;28;20039;-93
2021/08/06 21:49:30;;;;;;;;;;;;;;;;;;;;;
2021/08/06 21:52:19;;;;;;;6.03;5.43;;;20.30;99.90;;;;;;4995208;28;20041;-94
2021/08/06 21:58:20;;;;;;;;;;;;;;;;;;;;;
2021/08/06 22:01:17;;;;;;;8.98;5.40;;;20.30;99.90;;;;;;4988591;28;20473;-94
2021/08/06 22:04:03;;;;;;;6.65;5.30;;;20.30;99.90;;;;;;4985715;28;20493;-92
2021/08/06 22:07:02;;;;;;;6.07;5.25;;;20.30;99.90;;;;;;4983531;28;20053;-92
2021/08/06 22:13:08;;;;;;;6.88;6.18;;;20.20;99.90;;;;;;4969890;28;20129;-92
2021/08/06 22:16:16;;;;;;;7.75;6.72;;;20.10;99.90;;;;;;4980585;28;20030;-93
2021/08/06 22:22:10;;;;;;;9.90;6.40;;;20.00;99.90;;;;;;4978849;28;20046;-93
2021/08/06 22:25:16;;;;;;;;;;;;;;;;;;;;;
2021/08/06 22:28:25;;;;;;;;;;;;;;;;;;;;;
2021/08/06 22:31:24;;;;;;;9.75;7.00;;;20.00;99.90;;;;;;4999478;28;20392;-92
2021/08/06 22:37:32;;;;;;;8.43;6.43;;;20.00;99.90;;;;;;4988073;28;20061;-93
2021/08/06 22:40:34;;;;;;;;;;;;;;;;;;;;;
2021/08/06 22:43:13;;;;;;;8.65;5.55;;;19.90;99.90;;;;;;4966463;28;20044;-92
2021/08/06 22:46:18;;;;;;;;;;;;;;;;;;;;;
2021/08/06 22:49:15;;;;;;;6.85;6.07;;;19.90;99.90;;;;;;4999075;28;20030;-92
2021/08/06 22:52:02;;;;;;;;;;;;;;;;;;;;;
2021/08/06 22:55:10;;;;;;;;;;;;;;;;;;;;;
2021/08/06 22:58:20;;;;;;;;;;;;;;;;;;;;;
2021/08/06 23:04:48;;;;;;;;;;;;;;;;;;;;;
2021/08/06 23:08:16;;;;;;;;;;;;;;;;;;;;;
2021/08/06 23:11:01;;;;;;;;;;;;;;;;;;;;;
2021/08/06 23:14:26;;;;;;;;;;;;;;;;;;;;;
2021/08/06 23:17:38;;;;;;;7.28;5.28;;;20.00;99.90;;;;;;4998391;28;20400;-92
2021/08/06 23:21:02;;;;;;;8.02;5.65;;;20.00;99.90;;;;;;4979648;28;20042;-92
2021/08/06 23:23:49;;;;;;;6.35;5.75;;;20.00;99.90;;;;;;4997836;28;20045;-93
2021/08/06 23:26:42;;;;;;;8.32;6.20;;;20.10;99.90;;;;;;4998309;28;20039;-92
2021/08/06 23:29:39;;;;;;;9.45;7.20;;;20.10;99.90;;;;;;4980525;28;20041;-92
2021/08/06 23:32:50;;;;;;;9.02;7.40;;;20.10;99.90;;;;;;4979618;28;20397;-93
2021/08/06 23:35:47;;;;;;;10.50;8.00;;;20.10;99.90;;;;;;4980112;28;20041;-92
2021/08/06 23:38:58;;;;;;;8.40;7.38;;;20.10;99.90;;;;;;4953757;28;20042;-92
2021/08/06 23:41:40;;;;;;;11.52;9.35;;;20.10;99.90;;;;;;4981897;28;20045;-92
2021/08/06 23:44:44;;;;;;;13.93;8.98;;;20.00;99.90;;;;;;4980215;28;20042;-93
2021/08/06 23:47:46;;;;;;;10.88;9.10;;;20.00;99.90;;;;;;4980463;28;20385;-93
2021/08/06 23:50:49;;;;;;;;;;;;;;;;;;;;;
2021/08/06 23:54:10;;;;;;;;;;;;;;;;;;;;;
2021/08/06 23:57:35;;;;;;;;;;;;;;;;;;;;;
